sensor_id;sensor_type;location;lat;lon;timestamp;pressure;altitude;pressure_sealevel;temperature;humidity
56689;BME280;42565;53.342;-1.534;2023-02-13T00:00:15;100831.97;;;3.71;76.37
56689;BME280;42565;53.342;-1.534;2023-02-13T00:02:42;100823.93;;;3.78;75.65
56689;BME280;42565;53.342;-1.534;2023-02-13T00:05:10;100818.48;;;3.67;75.01
56689;BME280;42565;53.342;-1.534;2023-02-13T00:07:37;100813.48;;;4.90;71.90
56689;BME280;42565;53.342;-1.534;2023-02-13T00:10:06;100816.28;;;4.61;71.23
56689;BME280;42565;53.342;-1.534;2023-02-13T00:12:34;100821.90;;;4.00;73.64
56689;BME280;42565;53.342;-1.534;2023-02-13T00:15:02;100822.09;;;3.80;74.75
56689;BME280;42565;53.342;-1.534;2023-02-13T00:17:30;100813.00;;;3.91;75.24
56689;BME280;42565;53.342;-1.534;2023-02-13T00:19:57;100812.67;;;3.72;75.66
56689;BME280;42565;53.342;-1.534;2023-02-13T00:22:24;100814.66;;;3.88;74.35
56689;BME280;42565;53.342;-1.534;2023-02-13T00:24:52;100812.05;;;4.02;75.50
56689;BME280;42565;53.342;-1.534;2023-02-13T00:27:19;100808.14;;;4.25;73.61
56689;BME280;42565;53.342;-1.534;2023-02-13T00:29:46;100816.08;;;3.84;74.76
56689;BME280;42565;53.342;-1.534;2023-02-13T00:32:13;100806.91;;;3.39;76.47
56689;BME280;42565;53.342;-1.534;2023-02-13T00:34:41;100805.68;;;4.40;73.05
56689;BME280;42565;53.342;-1.534;2023-02-13T00:37:08;100800.14;;;4.27;72.83
56689;BME280;42565;53.342;-1.534;2023-02-13T00:39:35;100798.59;;;4.84;71.58
56689;BME280;42565;53.342;-1.534;2023-02-13T00:42:03;100799.47;;;4.22;74.40
56689;BME280;42565;53.342;-1.534;2023-02-13T00:44:30;100797.85;;;4.25;73.52
56689;BME280;42565;53.342;-1.534;2023-02-13T00:46:58;100797.87;;;4.75;72.06
56689;BME280;42565;53.342;-1.534;2023-02-13T00:49:25;100793.30;;;4.85;71.70
56689;BME280;42565;53.342;-1.534;2023-02-13T00:51:52;100790.11;;;4.73;71.98
56689;BME280;42565;53.342;-1.534;2023-02-13T00:54:20;100794.99;;;4.90;71.65
56689;BME280;42565;53.342;-1.534;2023-02-13T00:56:47;100798.92;;;4.11;74.91
56689;BME280;42565;53.342;-1.534;2023-02-13T00:59:14;100789.91;;;4.31;74.94
56689;BME280;42565;53.342;-1.534;2023-02-13T01:01:42;100787.96;;;4.33;73.53
56689;BME280;42565;53.342;-1.534;2023-02-13T01:04:08;100782.24;;;5.05;72.30
56689;BME280;42565;53.342;-1.534;2023-02-13T01:06:36;100784.83;;;4.36;72.87
56689;BME280;42565;53.342;-1.534;2023-02-13T01:09:03;100785.02;;;5.01;71.38
56689;BME280;42565;53.342;-1.534;2023-02-13T01:11:30;100785.80;;;4.72;72.24
56689;BME280;42565;53.342;-1.534;2023-02-13T01:13:57;100782.85;;;4.79;72.89
56689;BME280;42565;53.342;-1.534;2023-02-13T01:16:24;100777.40;;;5.23;71.27
56689;BME280;42565;53.342;-1.534;2023-02-13T01:18:51;100779.80;;;4.78;71.93
56689;BME280;42565;53.342;-1.534;2023-02-13T01:21:20;100785.08;;;4.84;72.34
56689;BME280;42565;53.342;-1.534;2023-02-13T01:23:47;100781.08;;;4.50;72.86
56689;BME280;42565;53.342;-1.534;2023-02-13T01:26:18;100785.51;;;3.94;75.56
56689;BME280;42565;53.342;-1.534;2023-02-13T01:28:46;100788.27;;;3.78;75.65
56689;BME280;42565;53.342;-1.534;2023-02-13T01:31:13;100794.80;;;4.14;74.73
56689;BME280;42565;53.342;-1.534;2023-02-13T01:33:40;100790.85;;;4.16;74.71
56689;BME280;42565;53.342;-1.534;2023-02-13T01:36:10;100790.42;;;4.39;74.56
56689;BME280;42565;53.342;-1.534;2023-02-13T01:38:37;100785.47;;;4.15;74.35
56689;BME280;42565;53.342;-1.534;2023-02-13T01:41:05;100793.50;;;4.27;74.69
56689;BME280;42565;53.342;-1.534;2023-02-13T01:43:51;100786.41;;;4.53;74.12
56689;BME280;42565;53.342;-1.534;2023-02-13T01:46:24;100785.43;;;4.52;74.25
56689;BME280;42565;53.342;-1.534;2023-02-13T01:48:57;100788.13;;;4.02;75.07
56689;BME280;42565;53.342;-1.534;2023-02-13T01:51:28;100791.50;;;3.57;77.19
56689;BME280;42565;53.342;-1.534;2023-02-13T01:53:59;100793.31;;;4.25;75.93
56689;BME280;42565;53.342;-1.534;2023-02-13T01:56:29;100786.79;;;3.85;77.25
56689;BME280;42565;53.342;-1.534;2023-02-13T01:59:01;100786.84;;;3.83;76.89
56689;BME280;42565;53.342;-1.534;2023-02-13T02:01:29;100787.08;;;3.97;77.41
56689;BME280;42565;53.342;-1.534;2023-02-13T02:04:03;100779.93;;;3.82;76.24
56689;BME280;42565;53.342;-1.534;2023-02-13T02:06:35;100769.98;;;4.11;76.88
56689;BME280;42565;53.342;-1.534;2023-02-13T02:09:07;100775.36;;;3.85;77.18
56689;BME280;42565;53.342;-1.534;2023-02-13T02:11:43;100769.65;;;3.80;77.88
56689;BME280;42565;53.342;-1.534;2023-02-13T02:14:14;100769.31;;;4.28;75.34
56689;BME280;42565;53.342;-1.534;2023-02-13T02:16:41;100768.46;;;4.31;74.88
56689;BME280;42565;53.342;-1.534;2023-02-13T02:19:13;100762.86;;;5.00;74.13
56689;BME280;42565;53.342;-1.534;2023-02-13T02:21:56;100759.20;;;4.75;72.41
56689;BME280;42565;53.342;-1.534;2023-02-13T02:26:08;100757.39;;;5.42;72.53
56689;BME280;42565;53.342;-1.534;2023-02-13T02:29:21;100752.84;;;4.54;73.39
56689;BME280;42565;53.342;-1.534;2023-02-13T02:32:17;100755.49;;;4.28;73.33
56689;BME280;42565;53.342;-1.534;2023-02-13T02:34:54;100755.29;;;4.25;74.41
56689;BME280;42565;53.342;-1.534;2023-02-13T02:37:37;100747.63;;;4.66;73.90
56689;BME280;42565;53.342;-1.534;2023-02-13T02:40:15;100748.74;;;4.52;74.07
56689;BME280;42565;53.342;-1.534;2023-02-13T02:42:57;100756.16;;;4.51;74.88
56689;BME280;42565;53.342;-1.534;2023-02-13T02:45:34;100756.19;;;4.57;72.59
56689;BME280;42565;53.342;-1.534;2023-02-13T02:48:08;100760.07;;;4.44;74.93
56689;BME280;42565;53.342;-1.534;2023-02-13T02:50:41;100760.18;;;4.05;75.13
56689;BME280;42565;53.342;-1.534;2023-02-13T02:53:21;100755.50;;;4.05;77.36
56689;BME280;42565;53.342;-1.534;2023-02-13T02:55:53;100761.74;;;3.94;77.44
56689;BME280;42565;53.342;-1.534;2023-02-13T02:58:24;100756.24;;;4.45;75.82
56689;BME280;42565;53.342;-1.534;2023-02-13T03:00:54;100755.04;;;4.36;75.77
56689;BME280;42565;53.342;-1.534;2023-02-13T03:03:24;100750.64;;;4.50;74.84
56689;BME280;42565;53.342;-1.534;2023-02-13T03:05:51;100749.38;;;4.32;76.02
56689;BME280;42565;53.342;-1.534;2023-02-13T03:08:19;100751.99;;;4.07;75.52
56689;BME280;42565;53.342;-1.534;2023-02-13T03:10:46;100746.52;;;5.35;71.26
56689;BME280;42565;53.342;-1.534;2023-02-13T03:13:17;100744.73;;;5.57;69.75
56689;BME280;42565;53.342;-1.534;2023-02-13T03:15:58;100747.13;;;5.40;69.95
56689;BME280;42565;53.342;-1.534;2023-02-13T03:18:26;100748.65;;;5.58;68.78
56689;BME280;42565;53.342;-1.534;2023-02-13T03:21:00;100736.73;;;4.95;70.31
56689;BME280;42565;53.342;-1.534;2023-02-13T03:23:45;100740.50;;;5.07;70.61
56689;BME280;42565;53.342;-1.534;2023-02-13T03:26:30;100734.46;;;4.61;72.34
56689;BME280;42565;53.342;-1.534;2023-02-13T03:29:06;100732.69;;;4.71;72.89
56689;BME280;42565;53.342;-1.534;2023-02-13T03:31:42;100740.48;;;4.11;74.45
56689;BME280;42565;53.342;-1.534;2023-02-13T03:34:17;100733.69;;;4.26;74.79
56689;BME280;42565;53.342;-1.534;2023-02-13T03:36:50;100736.82;;;4.34;74.74
56689;BME280;42565;53.342;-1.534;2023-02-13T03:39:25;100729.93;;;4.02;74.14
56689;BME280;42565;53.342;-1.534;2023-02-13T03:41:59;100727.84;;;3.86;75.98
56689;BME280;42565;53.342;-1.534;2023-02-13T03:44:31;100726.86;;;3.99;75.57
56689;BME280;42565;53.342;-1.534;2023-02-13T03:47:01;100725.03;;;4.27;74.63
56689;BME280;42565;53.342;-1.534;2023-02-13T03:49:31;100722.25;;;4.48;73.56
56689;BME280;42565;53.342;-1.534;2023-02-13T03:52:03;100723.38;;;4.44;71.60
56689;BME280;42565;53.342;-1.534;2023-02-13T03:54:36;100726.36;;;4.47;72.78
56689;BME280;42565;53.342;-1.534;2023-02-13T03:57:05;100727.49;;;4.22;74.83
56689;BME280;42565;53.342;-1.534;2023-02-13T03:59:34;100725.68;;;4.03;75.49
56689;BME280;42565;53.342;-1.534;2023-02-13T04:02:07;100724.58;;;3.92;75.14
56689;BME280;42565;53.342;-1.534;2023-02-13T04:04:44;100721.76;;;4.07;74.14
56689;BME280;42565;53.342;-1.534;2023-02-13T04:07:15;100729.21;;;4.35;74.13
56689;BME280;42565;53.342;-1.534;2023-02-13T04:09:44;100730.35;;;3.71;77.56
56689;BME280;42565;53.342;-1.534;2023-02-13T04:12:15;100731.48;;;3.19;78.56
56689;BME280;42565;53.342;-1.534;2023-02-13T04:14:49;100727.21;;;3.97;76.58
56689;BME280;42565;53.342;-1.534;2023-02-13T04:17:23;100725.03;;;3.57;75.94
56689;BME280;42565;53.342;-1.534;2023-02-13T04:19:50;100721.78;;;3.96;76.38
56689;BME280;42565;53.342;-1.534;2023-02-13T04:22:17;100719.28;;;3.67;75.37
56689;BME280;42565;53.342;-1.534;2023-02-13T04:24:45;100719.57;;;3.84;75.97
56689;BME280;42565;53.342;-1.534;2023-02-13T04:27:12;100717.47;;;4.39;73.98
56689;BME280;42565;53.342;-1.534;2023-02-13T04:29:40;100718.75;;;4.14;74.05
56689;BME280;42565;53.342;-1.534;2023-02-13T04:32:08;100718.78;;;4.25;73.06
56689;BME280;42565;53.342;-1.534;2023-02-13T04:34:36;100715.32;;;3.79;75.94
56689;BME280;42565;53.342;-1.534;2023-02-13T04:37:03;100723.93;;;3.41;78.19
56689;BME280;42565;53.342;-1.534;2023-02-13T04:39:30;100729.07;;;3.37;80.33
56689;BME280;42565;53.342;-1.534;2023-02-13T04:41:57;100721.15;;;3.93;78.00
56689;BME280;42565;53.342;-1.534;2023-02-13T04:44:24;100720.42;;;3.86;76.72
56689;BME280;42565;53.342;-1.534;2023-02-13T04:46:51;100717.69;;;4.10;75.69
56689;BME280;42565;53.342;-1.534;2023-02-13T04:49:18;100714.76;;;4.04;75.85
56689;BME280;42565;53.342;-1.534;2023-02-13T04:51:45;100717.54;;;3.70;76.54
56689;BME280;42565;53.342;-1.534;2023-02-13T04:54:12;100711.33;;;3.81;76.16
56689;BME280;42565;53.342;-1.534;2023-02-13T04:56:39;100719.24;;;3.99;76.49
56689;BME280;42565;53.342;-1.534;2023-02-13T04:59:06;100707.73;;;3.09;79.25
56689;BME280;42565;53.342;-1.534;2023-02-13T05:01:33;100713.13;;;3.55;78.38
56689;BME280;42565;53.342;-1.534;2023-02-13T05:04:01;100700.02;;;3.73;78.31
56689;BME280;42565;53.342;-1.534;2023-02-13T05:06:27;100696.47;;;4.33;76.56
56689;BME280;42565;53.342;-1.534;2023-02-13T05:08:55;100703.84;;;4.00;77.04
56689;BME280;42565;53.342;-1.534;2023-02-13T05:11:22;100703.34;;;3.69;77.93
56689;BME280;42565;53.342;-1.534;2023-02-13T05:13:49;100701.40;;;3.81;77.86
56689;BME280;42565;53.342;-1.534;2023-02-13T05:16:17;100702.26;;;3.50;78.78
56689;BME280;42565;53.342;-1.534;2023-02-13T05:18:44;100708.92;;;3.08;80.65
56689;BME280;42565;53.342;-1.534;2023-02-13T05:21:11;100710.28;;;2.85;81.37
56689;BME280;42565;53.342;-1.534;2023-02-13T05:23:39;100707.77;;;3.29;80.41
56689;BME280;42565;53.342;-1.534;2023-02-13T05:26:06;100698.43;;;4.19;77.92
56689;BME280;42565;53.342;-1.534;2023-02-13T05:28:33;100692.51;;;4.14;76.29
56689;BME280;42565;53.342;-1.534;2023-02-13T05:31:00;100693.86;;;3.78;77.46
56689;BME280;42565;53.342;-1.534;2023-02-13T05:33:27;100693.67;;;3.79;77.75
56689;BME280;42565;53.342;-1.534;2023-02-13T05:35:55;100690.62;;;4.13;77.30
56689;BME280;42565;53.342;-1.534;2023-02-13T05:38:21;100682.18;;;3.74;78.18
56689;BME280;42565;53.342;-1.534;2023-02-13T05:40:49;100686.61;;;3.45;79.51
56689;BME280;42565;53.342;-1.534;2023-02-13T05:43:17;100679.28;;;4.13;77.52
56689;BME280;42565;53.342;-1.534;2023-02-13T05:45:44;100684.94;;;4.53;76.11
56689;BME280;42565;53.342;-1.534;2023-02-13T05:48:11;100685.56;;;4.16;76.75
56689;BME280;42565;53.342;-1.534;2023-02-13T05:50:39;100691.33;;;3.54;77.86
56689;BME280;42565;53.342;-1.534;2023-02-13T05:53:06;100690.03;;;4.02;76.52
56689;BME280;42565;53.342;-1.534;2023-02-13T05:55:33;100701.39;;;3.14;79.76
56689;BME280;42565;53.342;-1.534;2023-02-13T05:58:00;100682.26;;;3.37;80.77
56689;BME280;42565;53.342;-1.534;2023-02-13T06:00:27;100679.30;;;3.51;79.14
56689;BME280;42565;53.342;-1.534;2023-02-13T06:02:55;100676.51;;;4.20;76.54
56689;BME280;42565;53.342;-1.534;2023-02-13T06:05:22;100681.24;;;3.92;77.10
56689;BME280;42565;53.342;-1.534;2023-02-13T06:07:49;100678.93;;;3.87;78.23
56689;BME280;42565;53.342;-1.534;2023-02-13T06:10:16;100681.02;;;3.78;79.27
56689;BME280;42565;53.342;-1.534;2023-02-13T06:12:43;100681.44;;;3.89;77.49
56689;BME280;42565;53.342;-1.534;2023-02-13T06:15:10;100680.33;;;3.56;79.09
56689;BME280;42565;53.342;-1.534;2023-02-13T06:17:37;100687.30;;;3.68;79.77
56689;BME280;42565;53.342;-1.534;2023-02-13T06:20:06;100686.52;;;3.61;79.48
56689;BME280;42565;53.342;-1.534;2023-02-13T06:22:33;100681.49;;;3.70;77.81
56689;BME280;42565;53.342;-1.534;2023-02-13T06:25:01;100688.89;;;3.90;78.52
56689;BME280;42565;53.342;-1.534;2023-02-13T06:27:27;100678.69;;;3.60;79.23
56689;BME280;42565;53.342;-1.534;2023-02-13T06:29:55;100672.91;;;4.00;78.93
56689;BME280;42565;53.342;-1.534;2023-02-13T06:32:22;100671.19;;;3.99;78.46
56689;BME280;42565;53.342;-1.534;2023-02-13T06:34:49;100676.13;;;3.83;77.78
56689;BME280;42565;53.342;-1.534;2023-02-13T06:37:16;100680.26;;;3.65;79.06
56689;BME280;42565;53.342;-1.534;2023-02-13T06:39:43;100686.33;;;3.58;79.78
56689;BME280;42565;53.342;-1.534;2023-02-13T06:42:10;100678.09;;;3.84;79.88
56689;BME280;42565;53.342;-1.534;2023-02-13T06:44:38;100680.35;;;3.59;80.28
56689;BME280;42565;53.342;-1.534;2023-02-13T06:47:05;100679.22;;;3.44;80.65
56689;BME280;42565;53.342;-1.534;2023-02-13T06:49:33;100685.49;;;3.14;82.78
56689;BME280;42565;53.342;-1.534;2023-02-13T06:52:00;100687.73;;;3.08;82.88
56689;BME280;42565;53.342;-1.534;2023-02-13T06:54:27;100681.36;;;3.56;81.53
56689;BME280;42565;53.342;-1.534;2023-02-13T06:56:54;100680.39;;;3.89;79.23
56689;BME280;42565;53.342;-1.534;2023-02-13T06:59:21;100687.89;;;4.15;77.92
56689;BME280;42565;53.342;-1.534;2023-02-13T07:01:48;100681.09;;;4.48;77.78
56689;BME280;42565;53.342;-1.534;2023-02-13T07:04:16;100684.02;;;4.38;77.99
56689;BME280;42565;53.342;-1.534;2023-02-13T07:06:44;100682.47;;;4.63;77.49
56689;BME280;42565;53.342;-1.534;2023-02-13T07:09:10;100689.92;;;4.27;78.64
56689;BME280;42565;53.342;-1.534;2023-02-13T07:11:38;100685.10;;;3.90;80.23
56689;BME280;42565;53.342;-1.534;2023-02-13T07:14:06;100687.49;;;3.35;82.30
56689;BME280;42565;53.342;-1.534;2023-02-13T07:16:33;100679.91;;;3.32;82.76
56689;BME280;42565;53.342;-1.534;2023-02-13T07:19:00;100686.49;;;4.31;80.38
56689;BME280;42565;53.342;-1.534;2023-02-13T07:21:28;100685.94;;;3.63;82.02
56689;BME280;42565;53.342;-1.534;2023-02-13T07:23:55;100682.70;;;3.47;82.91
56689;BME280;42565;53.342;-1.534;2023-02-13T07:26:22;100685.02;;;3.47;83.22
56689;BME280;42565;53.342;-1.534;2023-02-13T07:28:49;100679.24;;;3.93;83.09
56689;BME280;42565;53.342;-1.534;2023-02-13T07:31:16;100678.28;;;3.77;82.44
56689;BME280;42565;53.342;-1.534;2023-02-13T07:33:47;100673.99;;;3.61;82.94
56689;BME280;42565;53.342;-1.534;2023-02-13T07:36:14;100674.15;;;3.78;82.68
56689;BME280;42565;53.342;-1.534;2023-02-13T07:38:42;100672.74;;;4.39;79.00
56689;BME280;42565;53.342;-1.534;2023-02-13T07:41:09;100671.47;;;4.22;79.30
56689;BME280;42565;53.342;-1.534;2023-02-13T07:43:36;100669.30;;;4.82;76.81
56689;BME280;42565;53.342;-1.534;2023-02-13T07:46:03;100671.33;;;4.94;77.50
56689;BME280;42565;53.342;-1.534;2023-02-13T07:48:31;100672.86;;;4.91;76.85
56689;BME280;42565;53.342;-1.534;2023-02-13T07:51:00;100674.64;;;4.85;77.31
56689;BME280;42565;53.342;-1.534;2023-02-13T07:53:28;100675.23;;;5.04;77.16
56689;BME280;42565;53.342;-1.534;2023-02-13T07:55:55;100674.12;;;5.68;75.42
56689;BME280;42565;53.342;-1.534;2023-02-13T07:58:22;100676.02;;;5.30;74.61
56689;BME280;42565;53.342;-1.534;2023-02-13T08:00:49;100675.43;;;4.80;75.85
56689;BME280;42565;53.342;-1.534;2023-02-13T08:03:17;100673.63;;;5.03;77.27
56689;BME280;42565;53.342;-1.534;2023-02-13T08:05:46;100672.01;;;5.37;74.65
56689;BME280;42565;53.342;-1.534;2023-02-13T08:08:14;100670.80;;;5.52;74.07
56689;BME280;42565;53.342;-1.534;2023-02-13T08:10:41;100667.88;;;5.43;74.05
56689;BME280;42565;53.342;-1.534;2023-02-13T08:13:09;100669.09;;;4.71;76.07
56689;BME280;42565;53.342;-1.534;2023-02-13T08:15:37;100668.82;;;4.64;76.46
56689;BME280;42565;53.342;-1.534;2023-02-13T08:18:05;100666.39;;;4.84;77.55
56689;BME280;42565;53.342;-1.534;2023-02-13T08:20:32;100661.14;;;4.45;80.06
56689;BME280;42565;53.342;-1.534;2023-02-13T08:23:04;100661.44;;;4.22;80.84
56689;BME280;42565;53.342;-1.534;2023-02-13T08:25:32;100649.92;;;4.25;81.90
56689;BME280;42565;53.342;-1.534;2023-02-13T08:27:59;100658.02;;;4.68;79.62
56689;BME280;42565;53.342;-1.534;2023-02-13T08:30:26;100660.11;;;4.54;79.65
56689;BME280;42565;53.342;-1.534;2023-02-13T08:32:54;100661.40;;;4.36;81.45
56689;BME280;42565;53.342;-1.534;2023-02-13T08:35:26;100657.54;;;4.17;81.68
56689;BME280;42565;53.342;-1.534;2023-02-13T08:37:53;100660.24;;;3.86;81.95
56689;BME280;42565;53.342;-1.534;2023-02-13T08:40:20;100666.54;;;4.09;80.73
56689;BME280;42565;53.342;-1.534;2023-02-13T08:42:48;100669.53;;;4.86;79.34
56689;BME280;42565;53.342;-1.534;2023-02-13T08:45:16;100668.38;;;4.07;81.34
56689;BME280;42565;53.342;-1.534;2023-02-13T08:47:43;100672.09;;;3.90;82.89
56689;BME280;42565;53.342;-1.534;2023-02-13T08:50:10;100674.64;;;3.50;85.79
56689;BME280;42565;53.342;-1.534;2023-02-13T08:52:37;100681.97;;;2.89;87.34
56689;BME280;42565;53.342;-1.534;2023-02-13T08:55:05;100678.56;;;2.89;88.37
56689;BME280;42565;53.342;-1.534;2023-02-13T08:57:32;100675.94;;;3.31;86.85
56689;BME280;42565;53.342;-1.534;2023-02-13T08:59:59;100681.26;;;3.88;85.32
56689;BME280;42565;53.342;-1.534;2023-02-13T09:02:27;100688.91;;;3.19;86.77
56689;BME280;42565;53.342;-1.534;2023-02-13T09:04:54;100684.64;;;3.74;85.62
56689;BME280;42565;53.342;-1.534;2023-02-13T09:07:21;100693.87;;;4.09;83.43
56689;BME280;42565;53.342;-1.534;2023-02-13T09:09:48;100685.26;;;4.07;83.79
56689;BME280;42565;53.342;-1.534;2023-02-13T09:12:16;100686.16;;;4.00;83.29
56689;BME280;42565;53.342;-1.534;2023-02-13T09:14:43;100686.37;;;3.75;85.00
56689;BME280;42565;53.342;-1.534;2023-02-13T09:17:11;100679.43;;;4.25;83.47
56689;BME280;42565;53.342;-1.534;2023-02-13T09:19:38;100685.70;;;3.75;84.37
56689;BME280;42565;53.342;-1.534;2023-02-13T09:22:05;100685.69;;;3.61;85.02
56689;BME280;42565;53.342;-1.534;2023-02-13T09:24:32;100677.99;;;4.09;83.72
56689;BME280;42565;53.342;-1.534;2023-02-13T09:26:59;100681.55;;;4.16;81.90
56689;BME280;42565;53.342;-1.534;2023-02-13T09:29:26;100676.90;;;4.11;83.15
56689;BME280;42565;53.342;-1.534;2023-02-13T09:31:53;100685.31;;;3.09;86.17
56689;BME280;42565;53.342;-1.534;2023-02-13T09:34:20;100674.84;;;3.59;85.25
56689;BME280;42565;53.342;-1.534;2023-02-13T09:36:50;100676.64;;;3.80;84.21
56689;BME280;42565;53.342;-1.534;2023-02-13T09:39:17;100673.91;;;4.00;83.53
56689;BME280;42565;53.342;-1.534;2023-02-13T09:41:46;100671.30;;;4.16;82.36
56689;BME280;42565;53.342;-1.534;2023-02-13T09:44:17;100668.59;;;4.93;79.80
56689;BME280;42565;53.342;-1.534;2023-02-13T09:46:46;100670.20;;;4.41;80.26
56689;BME280;42565;53.342;-1.534;2023-02-13T09:49:14;100675.72;;;4.66;79.49
56689;BME280;42565;53.342;-1.534;2023-02-13T09:51:43;100676.26;;;4.92;79.75
56689;BME280;42565;53.342;-1.534;2023-02-13T09:54:14;100675.23;;;5.20;78.78
56689;BME280;42565;53.342;-1.534;2023-02-13T09:56:47;100682.72;;;5.13;78.29
56689;BME280;42565;53.342;-1.534;2023-02-13T09:59:34;100676.66;;;4.33;81.20
56689;BME280;42565;53.342;-1.534;2023-02-13T10:02:21;100674.04;;;4.02;81.69
56689;BME280;42565;53.342;-1.534;2023-02-13T10:04:55;100676.79;;;5.21;78.12
56689;BME280;42565;53.342;-1.534;2023-02-13T10:07:35;100675.52;;;3.95;81.16
56689;BME280;42565;53.342;-1.534;2023-02-13T10:10:14;100671.86;;;4.41;80.21
56689;BME280;42565;53.342;-1.534;2023-02-13T10:13:00;100670.84;;;4.79;78.86
56689;BME280;42565;53.342;-1.534;2023-02-13T10:15:38;100676.03;;;4.95;77.60
56689;BME280;42565;53.342;-1.534;2023-02-13T10:18:12;100674.08;;;4.69;77.75
56689;BME280;42565;53.342;-1.534;2023-02-13T10:20:45;100678.89;;;4.62;78.43
56689;BME280;42565;53.342;-1.534;2023-02-13T10:23:20;100684.35;;;4.33;78.46
56689;BME280;42565;53.342;-1.534;2023-02-13T10:25:51;100678.06;;;4.40;79.83
56689;BME280;42565;53.342;-1.534;2023-02-13T10:28:29;100681.92;;;5.22;76.60
56689;BME280;42565;53.342;-1.534;2023-02-13T10:31:02;100691.41;;;5.29;75.64
56689;BME280;42565;53.342;-1.534;2023-02-13T10:33:35;100688.02;;;4.83;76.46
56689;BME280;42565;53.342;-1.534;2023-02-13T10:36:14;100688.67;;;4.86;75.56
56689;BME280;42565;53.342;-1.534;2023-02-13T10:38:44;100692.04;;;4.83;75.84
56689;BME280;42565;53.342;-1.534;2023-02-13T10:41:23;100692.12;;;4.64;76.69
56689;BME280;42565;53.342;-1.534;2023-02-13T10:44:04;100687.51;;;4.63;76.13
56689;BME280;42565;53.342;-1.534;2023-02-13T10:46:45;100688.45;;;4.76;75.46
56689;BME280;42565;53.342;-1.534;2023-02-13T10:49:36;100688.53;;;4.98;75.75
56689;BME280;42565;53.342;-1.534;2023-02-13T10:52:16;100691.13;;;4.82;76.07
56689;BME280;42565;53.342;-1.534;2023-02-13T10:55:03;100685.15;;;4.74;75.82
56689;BME280;42565;53.342;-1.534;2023-02-13T10:57:45;100680.46;;;5.05;73.33
56689;BME280;42565;53.342;-1.534;2023-02-13T11:00:23;100676.12;;;4.72;74.26
56689;BME280;42565;53.342;-1.534;2023-02-13T11:02:55;100675.54;;;5.39;73.00
56689;BME280;42565;53.342;-1.534;2023-02-13T11:05:24;100676.13;;;5.31;72.86
56689;BME280;42565;53.342;-1.534;2023-02-13T11:07:52;100671.39;;;6.20;71.28
56689;BME280;42565;53.342;-1.534;2023-02-13T11:10:21;100671.32;;;5.76;71.00
56689;BME280;42565;53.342;-1.534;2023-02-13T11:12:50;100672.55;;;6.06;70.76
56689;BME280;42565;53.342;-1.534;2023-02-13T11:15:24;100674.49;;;6.05;70.29
56689;BME280;42565;53.342;-1.534;2023-02-13T11:17:52;100673.79;;;5.76;70.83
56689;BME280;42565;53.342;-1.534;2023-02-13T11:20:26;100671.30;;;4.89;73.15
56689;BME280;42565;53.342;-1.534;2023-02-13T11:22:54;100660.55;;;5.13;74.50
56689;BME280;42565;53.342;-1.534;2023-02-13T11:25:24;100656.86;;;5.12;74.84
56689;BME280;42565;53.342;-1.534;2023-02-13T11:28:07;100657.45;;;5.16;74.29
56689;BME280;42565;53.342;-1.534;2023-02-13T11:30:36;100662.55;;;4.03;77.78
56689;BME280;42565;53.342;-1.534;2023-02-13T11:33:06;100649.84;;;4.43;76.69
56689;BME280;42565;53.342;-1.534;2023-02-13T11:35:47;100646.44;;;4.89;74.20
56689;BME280;42565;53.342;-1.534;2023-02-13T11:38:22;100643.10;;;5.39;73.05
56689;BME280;42565;53.342;-1.534;2023-02-13T11:41:02;100652.05;;;5.36;72.70
56689;BME280;42565;53.342;-1.534;2023-02-13T11:43:32;100643.46;;;5.55;72.97
56689;BME280;42565;53.342;-1.534;2023-02-13T11:46:03;100635.78;;;5.51;71.84
56689;BME280;42565;53.342;-1.534;2023-02-13T11:48:31;100634.85;;;5.81;71.29
56689;BME280;42565;53.342;-1.534;2023-02-13T11:50:59;100634.98;;;5.83;70.50
56689;BME280;42565;53.342;-1.534;2023-02-13T11:53:29;100638.13;;;5.70;70.78
56689;BME280;42565;53.342;-1.534;2023-02-13T11:56:05;100633.78;;;5.71;71.21
56689;BME280;42565;53.342;-1.534;2023-02-13T11:58:33;100624.31;;;5.64;70.84
56689;BME280;42565;53.342;-1.534;2023-02-13T12:01:22;100619.63;;;6.21;68.66
56689;BME280;42565;53.342;-1.534;2023-02-13T12:04:02;100619.38;;;6.91;66.89
56689;BME280;42565;53.342;-1.534;2023-02-13T12:06:31;100624.69;;;6.77;67.46
56689;BME280;42565;53.342;-1.534;2023-02-13T12:08:59;100622.21;;;6.16;67.39
56689;BME280;42565;53.342;-1.534;2023-02-13T12:11:35;100619.61;;;7.00;65.55
56689;BME280;42565;53.342;-1.534;2023-02-13T12:14:08;100614.11;;;6.84;64.12
56689;BME280;42565;53.342;-1.534;2023-02-13T12:16:40;100605.02;;;7.36;63.71
56689;BME280;42565;53.342;-1.534;2023-02-13T12:19:11;100603.20;;;7.28;63.77
56689;BME280;42565;53.342;-1.534;2023-02-13T12:21:50;100607.02;;;6.82;65.59
56689;BME280;42565;53.342;-1.534;2023-02-13T12:24:31;100599.46;;;7.41;64.09
56689;BME280;42565;53.342;-1.534;2023-02-13T12:27:08;100607.90;;;7.49;62.33
56689;BME280;42565;53.342;-1.534;2023-02-13T12:30:03;100595.86;;;7.57;63.27
56689;BME280;42565;53.342;-1.534;2023-02-13T12:32:46;100598.52;;;7.25;63.23
56689;BME280;42565;53.342;-1.534;2023-02-13T12:35:29;100594.29;;;7.51;62.81
56689;BME280;42565;53.342;-1.534;2023-02-13T12:38:04;100598.64;;;8.07;61.90
56689;BME280;42565;53.342;-1.534;2023-02-13T12:40:53;100592.45;;;8.33;60.83
56689;BME280;42565;53.342;-1.534;2023-02-13T12:43:39;100580.24;;;7.36;61.58
56689;BME280;42565;53.342;-1.534;2023-02-13T12:46:13;100579.48;;;7.96;61.50
56689;BME280;42565;53.342;-1.534;2023-02-13T12:48:48;100579.03;;;8.55;59.88
56689;BME280;42565;53.342;-1.534;2023-02-13T12:51:29;100581.09;;;7.71;60.95
56689;BME280;42565;53.342;-1.534;2023-02-13T12:54:11;100581.82;;;8.54;60.01
56689;BME280;42565;53.342;-1.534;2023-02-13T12:56:55;100583.99;;;7.64;60.61
56689;BME280;42565;53.342;-1.534;2023-02-13T12:59:32;100578.84;;;7.84;60.76
56689;BME280;42565;53.342;-1.534;2023-02-13T13:04:43;100580.09;;;8.86;59.37
56689;BME280;42565;53.342;-1.534;2023-02-13T13:07:25;100580.56;;;9.14;57.03
56689;BME280;42565;53.342;-1.534;2023-02-13T13:10:04;100576.97;;;9.07;57.51
56689;BME280;42565;53.342;-1.534;2023-02-13T13:12:48;100572.03;;;8.38;59.35